Time;durP1;ratioP1;P1;durP2;ratioP2;P2;SDS_P1;SDS_P2;PMS_P1;PMS_P2;Temp;Humidity;BMP_temperature;BMP_pressure;BME280_temperature;BME280_humidity;BME280_pressure;Samples;Min_cycle;Max_cycle;Signal;HPM_P1;HPM_P2
2022/03/27 00:01:20;;;;;;;18.97;11.00;;;;;;;;;;773058;179;919845;-62
2022/03/27 00:03:46;;;;;;;19.30;10.53;;;;;;;;;;765316;180;919585;-61
2022/03/27 00:06:11;;;;;;;21.25;12.18;;;;;;;;;;773759;180;918338;-62
2022/03/27 00:08:38;;;;;;;23.30;13.13;;;;;;;;;;768903;180;920480;-61
2022/03/27 00:13:35;;;;;;;24.40;12.30;;;;;;;;;;766035;182;919516;-62
2022/03/27 00:16:01;;;;;;;16.77;10.00;;;;;;;;;;766011;180;919851;-62
2022/03/27 00:18:27;;;;;;;23.27;11.37;;;;;;;;;;771293;180;918563;-61
2022/03/27 00:20:53;;;;;;;26.40;13.63;;;;;;;;;;765821;181;919869;-62
2022/03/27 00:23:19;;;;;;;24.20;14.67;;;;;;;;;;782379;179;918648;-61
2022/03/27 00:25:45;;;;;;;27.77;14.70;;;;;;;;;;785444;179;920573;-61
2022/03/27 00:28:10;;;;;;;24.93;12.60;;;;;;;;;;766583;181;921245;-61
2022/03/27 00:30:36;;;;;;;27.23;12.07;;;;;;;;;;767012;177;920496;-62
2022/03/27 00:33:02;;;;;;;20.00;12.97;;;;;;;;;;775451;177;919741;-62
2022/03/27 00:35:28;;;;;;;19.40;11.13;;;;;;;;;;775131;179;918930;-62
2022/03/27 00:37:54;;;;;;;20.93;12.40;;;;;;;;;;769626;179;915622;-62
2022/03/27 00:40:20;;;;;;;22.93;14.57;;;;;;;;;;771388;180;920500;-62
2022/03/27 00:42:46;;;;;;;21.85;12.63;;;;;;;;;;777728;179;919075;-61
2022/03/27 00:45:12;;;;;;;28.60;14.30;;;;;;;;;;773897;179;913101;-62
2022/03/27 00:47:38;;;;;;;23.65;12.77;;;;;;;;;;769946;178;1014568;-61
2022/03/27 00:50:04;;;;;;;25.17;14.60;;;;;;;;;;786049;176;916467;-62
2022/03/27 00:52:30;;;;;;;23.17;13.82;;;;;;;;;;778389;178;921684;-62
2022/03/27 00:54:56;;;;;;;24.83;15.27;;;;;;;;;;771444;180;920005;-62
2022/03/27 00:57:22;;;;;;;25.70;13.33;;;;;;;;;;774273;179;920208;-62
2022/03/27 00:59:48;;;;;;;24.30;13.80;;;;;;;;;;774771;179;919522;-62
2022/03/27 01:02:13;;;;;;;20.63;12.90;;;;;;;;;;776587;179;919807;-62
2022/03/27 01:04:39;;;;;;;25.02;14.30;;;;;;;;;;770870;180;920117;-62
2022/03/27 01:07:05;;;;;;;25.93;15.03;;;;;;;;;;775992;180;918935;-61
2022/03/27 01:09:36;;;;;;;26.27;13.83;;;;;;;;;;779111;177;920281;-61
2022/03/27 01:12:03;;;;;;;28.00;14.00;;;;;;;;;;768605;180;919374;-62
2022/03/27 01:14:31;;;;;;;23.23;14.07;;;;;;;;;;769965;179;919719;-61
2022/03/27 01:17:01;;;;;;;22.60;11.30;;;;;;;;;;774163;179;919878;-61
2022/03/27 01:19:26;;;;;;;25.17;14.10;;;;;;;;;;771674;179;919372;-62
2022/03/27 01:21:52;;;;;;;28.60;13.60;;;;;;;;;;770506;179;919474;-62
2022/03/27 01:24:18;;;;;;;21.37;11.80;;;;;;;;;;772445;179;917934;-62
2022/03/27 01:26:43;;;;;;;27.33;13.23;;;;;;;;;;770453;180;919461;-62
2022/03/27 01:29:09;;;;;;;22.20;12.30;;;;;;;;;;770312;179;919974;-63
2022/03/27 01:31:35;;;;;;;26.60;13.50;;;;;;;;;;767334;179;919400;-62
2022/03/27 01:34:01;;;;;;;28.20;14.23;;;;;;;;;;779753;178;919719;-62
2022/03/27 01:36:28;;;;;;;27.03;15.50;;;;;;;;;;772059;178;919535;-62
2022/03/27 01:38:53;;;;;;;26.80;13.83;;;;;;;;;;777994;179;938225;-62
2022/03/27 01:41:19;;;;;;;25.43;15.37;;;;;;;;;;774528;179;919377;-63
2022/03/27 01:43:44;;;;;;;25.73;15.10;;;;;;;;;;780174;178;919606;-62
2022/03/27 01:46:10;;;;;;;27.50;14.60;;;;;;;;;;771233;179;919809;-62
2022/03/27 01:48:36;;;;;;;28.58;17.27;;;;;;;;;;782769;179;919462;-63
2022/03/27 01:51:02;;;;;;;25.77;13.23;;;;;;;;;;777432;180;919897;-62
2022/03/27 01:53:28;;;;;;;26.43;13.40;;;;;;;;;;777834;180;919344;-62
2022/03/27 01:55:54;;;;;;;30.08;15.35;;;;;;;;;;778883;180;920294;-62
2022/03/27 01:58:20;;;;;;;27.87;16.20;;;;;;;;;;776552;176;918641;-62
2022/03/27 02:00:46;;;;;;;21.17;13.47;;;;;;;;;;763979;180;919800;-62
2022/03/27 02:03:11;;;;;;;27.62;15.70;;;;;;;;;;769344;181;920097;-62
2022/03/27 02:05:37;;;;;;;26.90;13.80;;;;;;;;;;773760;179;919920;-62
2022/03/27 02:08:03;;;;;;;29.93;16.03;;;;;;;;;;773686;180;919316;-62
2022/03/27 02:10:29;;;;;;;32.63;17.47;;;;;;;;;;784882;177;919492;-63
2022/03/27 02:12:55;;;;;;;30.83;16.40;;;;;;;;;;780851;179;919444;-62
2022/03/27 02:15:21;;;;;;;30.33;17.50;;;;;;;;;;766824;180;919511;-62
2022/03/27 02:17:47;;;;;;;31.90;18.00;;;;;;;;;;773837;180;919479;-62
2022/03/27 02:20:13;;;;;;;31.00;16.90;;;;;;;;;;783105;180;919505;-62
2022/03/27 02:22:38;;;;;;;33.08;18.65;;;;;;;;;;768254;180;919282;-62
2022/03/27 02:25:05;;;;;;;30.70;15.80;;;;;;;;;;768787;182;919996;-62
2022/03/27 02:27:31;;;;;;;29.73;16.43;;;;;;;;;;777848;177;919203;-62
2022/03/27 02:29:56;;;;;;;33.40;17.27;;;;;;;;;;773006;181;919339;-62
2022/03/27 02:32:22;;;;;;;32.60;20.03;;;;;;;;;;770850;179;918315;-62
2022/03/27 02:34:48;;;;;;;25.10;14.67;;;;;;;;;;774223;180;921924;-62
2022/03/27 02:37:14;;;;;;;32.10;17.90;;;;;;;;;;779687;180;920762;-62
2022/03/27 02:39:40;;;;;;;32.43;18.80;;;;;;;;;;775353;180;917212;-62
2022/03/27 02:42:06;;;;;;;33.50;18.97;;;;;;;;;;774416;179;916426;-62
2022/03/27 02:44:32;;;;;;;29.73;17.00;;;;;;;;;;778949;180;921713;-62
2022/03/27 02:46:58;;;;;;;33.80;19.50;;;;;;;;;;771516;180;916774;-62
2022/03/27 02:49:23;;;;;;;33.70;16.70;;;;;;;;;;769081;180;921604;-62
2022/03/27 02:51:49;;;;;;;25.10;14.65;;;;;;;;;;770044;179;926085;-61
2022/03/27 02:54:15;;;;;;;37.57;19.77;;;;;;;;;;771673;179;920158;-63
2022/03/27 02:56:41;;;;;;;36.03;19.20;;;;;;;;;;765675;179;920369;-62
2022/03/27 02:59:07;;;;;;;34.73;19.83;;;;;;;;;;765016;179;919791;-62
2022/03/27 03:01:33;;;;;;;30.47;17.57;;;;;;;;;;769932;179;918833;-62
2022/03/27 03:03:59;;;;;;;35.93;19.63;;;;;;;;;;755924;182;919220;-62
2022/03/27 03:06:25;;;;;;;28.42;17.67;;;;;;;;;;765950;178;1021998;-62
2022/03/27 03:08:50;;;;;;;36.90;22.70;;;;;;;;;;786509;176;919250;-62
2022/03/27 03:11:16;;;;;;;39.60;22.00;;;;;;;;;;773093;175;920318;-62
2022/03/27 03:13:44;;;;;;;40.80;21.10;;;;;;;;;;767499;179;920565;-62
2022/03/27 03:16:08;;;;;;;30.90;17.53;;;;;;;;;;765563;179;1020987;-62
2022/03/27 03:18:34;;;;;;;34.70;21.20;;;;;;;;;;778358;179;920046;-61
2022/03/27 03:21:00;;;;;;;35.33;21.10;;;;;;;;;;764780;180;919750;-62
2022/03/27 03:23:26;;;;;;;38.97;20.10;;;;;;;;;;766743;179;919229;-62
2022/03/27 03:25:52;;;;;;;31.50;18.90;;;;;;;;;;772916;179;918940;-63
2022/03/27 03:28:17;;;;;;;39.17;21.83;;;;;;;;;;775963;177;919294;-62
2022/03/27 03:30:43;;;;;;;34.83;19.27;;;;;;;;;;775393;179;920120;-61
2022/03/27 03:33:09;;;;;;;41.93;23.73;;;;;;;;;;782646;180;919460;-62
2022/03/27 03:35:35;;;;;;;28.13;19.47;;;;;;;;;;777778;177;919287;-62
2022/03/27 03:38:01;;;;;;;34.10;21.00;;;;;;;;;;779651;179;919552;-62
2022/03/27 03:40:27;;;;;;;31.70;21.70;;;;;;;;;;782384;179;919607;-61
2022/03/27 03:42:52;;;;;;;39.37;26.30;;;;;;;;;;769563;179;919571;-62
2022/03/27 03:45:18;;;;;;;37.87;21.20;;;;;;;;;;763352;180;919581;-61
2022/03/27 03:47:44;;;;;;;34.47;20.52;;;;;;;;;;768620;180;925598;-61
2022/03/27 03:50:10;;;;;;;37.87;22.33;;;;;;;;;;771700;180;918936;-62
2022/03/27 03:52:36;;;;;;;44.17;24.37;;;;;;;;;;768863;179;920865;-61
2022/03/27 03:55:02;;;;;;;47.65;25.30;;;;;;;;;;770548;179;919184;-61
2022/03/27 03:57:28;;;;;;;34.07;20.70;;;;;;;;;;775396;179;920228;-62
2022/03/27 03:59:53;;;;;;;39.60;24.20;;;;;;;;;;767849;179;919856;-62
2022/03/27 04:02:20;;;;;;;40.10;23.67;;;;;;;;;;770984;179;920585;-63
2022/03/27 04:04:45;;;;;;;46.13;28.40;;;;;;;;;;777392;180;919373;-62
2022/03/27 04:07:11;;;;;;;47.03;26.70;;;;;;;;;;770319;179;919716;-62
2022/03/27 04:09:37;;;;;;;52.67;27.10;;;;;;;;;;774408;179;919711;-62
2022/03/27 04:12:03;;;;;;;41.43;26.27;;;;;;;;;;766396;181;1136005;-61
2022/03/27 04:14:34;;;;;;;38.70;22.13;;;;;;;;;;773753;182;919998;-62
2022/03/27 04:16:56;;;;;;;37.43;23.00;;;;;;;;;;768374;179;920094;-62
2022/03/27 04:19:21;;;;;;;38.77;23.07;;;;;;;;;;771211;179;919408;-61
2022/03/27 04:21:47;;;;;;;32.80;21.40;;;;;;;;;;781997;179;919649;-62
2022/03/27 04:24:13;;;;;;;34.87;22.07;;;;;;;;;;769426;179;938464;-62
2022/03/27 04:26:40;;;;;;;36.07;22.17;;;;;;;;;;764509;182;919821;-62
2022/03/27 04:29:06;;;;;;;36.40;24.93;;;;;;;;;;774212;178;919558;-61
2022/03/27 04:31:31;;;;;;;35.23;23.10;;;;;;;;;;770341;179;918784;-62
2022/03/27 04:33:58;;;;;;;34.73;21.70;;;;;;;;;;766548;180;919208;-61
2022/03/27 04:36:23;;;;;;;33.10;20.03;;;;;;;;;;765307;182;920779;-62
2022/03/27 04:38:49;;;;;;;43.30;21.57;;;;;;;;;;779213;179;918242;-61
2022/03/27 04:41:15;;;;;;;37.10;20.07;;;;;;;;;;778231;179;919692;-62
2022/03/27 04:43:41;;;;;;;37.30;21.90;;;;;;;;;;770194;180;1020330;-62
2022/03/27 04:46:07;;;;;;;41.80;23.00;;;;;;;;;;770430;180;921396;-61
2022/03/27 04:48:32;;;;;;;33.00;22.53;;;;;;;;;;771844;179;923181;-61
2022/03/27 04:50:59;;;;;;;43.40;23.70;;;;;;;;;;777504;177;922386;-61
2022/03/27 04:53:25;;;;;;;37.27;24.20;;;;;;;;;;778084;177;918722;-61
2022/03/27 04:55:51;;;;;;;39.83;22.10;;;;;;;;;;760682;184;920644;-61
2022/03/27 04:58:17;;;;;;;32.87;21.20;;;;;;;;;;763363;181;917258;-61
2022/03/27 05:00:42;;;;;;;36.30;20.73;;;;;;;;;;768006;179;921595;-61
2022/03/27 05:03:08;;;;;;;38.07;19.90;;;;;;;;;;778519;179;922272;-61
2022/03/27 05:05:34;;;;;;;29.43;18.73;;;;;;;;;;785869;177;916683;-61
2022/03/27 05:08:00;;;;;;;34.40;19.80;;;;;;;;;;781284;177;920065;-62
2022/03/27 05:10:26;;;;;;;34.37;20.00;;;;;;;;;;771606;179;918237;-61
2022/03/27 05:12:52;;;;;;;32.77;18.60;;;;;;;;;;767958;180;919313;-61
2022/03/27 05:15:17;;;;;;;39.17;21.73;;;;;;;;;;764088;180;919810;-63
2022/03/27 05:17:45;;;;;;;29.50;19.40;;;;;;;;;;774994;179;1020431;-61
2022/03/27 05:20:11;;;;;;;35.33;21.00;;;;;;;;;;767189;180;919574;-61
2022/03/27 05:22:37;;;;;;;39.23;23.00;;;;;;;;;;767132;180;919822;-61
2022/03/27 05:25:02;;;;;;;41.20;21.67;;;;;;;;;;766581;180;918036;-61
2022/03/27 05:27:28;;;;;;;38.93;22.47;;;;;;;;;;777748;179;919174;-61
2022/03/27 05:29:54;;;;;;;44.90;23.70;;;;;;;;;;771355;178;919724;-61
2022/03/27 05:32:20;;;;;;;43.00;24.40;;;;;;;;;;770098;179;919590;-62
2022/03/27 05:34:46;;;;;;;45.53;23.53;;;;;;;;;;783088;180;918493;-60
2022/03/27 05:37:12;;;;;;;45.10;26.00;;;;;;;;;;781739;178;919518;-62
2022/03/27 05:39:37;;;;;;;37.20;22.30;;;;;;;;;;777392;178;919326;-62
2022/03/27 05:42:04;;;;;;;41.63;19.77;;;;;;;;;;782677;179;918990;-62
2022/03/27 05:44:29;;;;;;;43.20;23.33;;;;;;;;;;772442;180;920064;-62
2022/03/27 05:46:56;;;;;;;39.87;21.80;;;;;;;;;;771565;180;920297;-62
2022/03/27 05:49:22;;;;;;;41.37;21.55;;;;;;;;;;774716;180;919218;-61
2022/03/27 05:51:48;;;;;;;43.63;19.57;;;;;;;;;;768623;182;920300;-62
2022/03/27 05:54:14;;;;;;;38.33;20.00;;;;;;;;;;766173;180;1055352;-63
2022/03/27 05:56:39;;;;;;;31.50;18.83;;;;;;;;;;782179;179;920130;-62
2022/03/27 05:59:06;;;;;;;26.70;14.73;;;;;;;;;;779163;177;918796;-62
2022/03/27 06:01:31;;;;;;;28.77;17.73;;;;;;;;;;775145;179;919590;-61
2022/03/27 06:03:58;;;;;;;33.40;16.13;;;;;;;;;;770794;180;938332;-62
2022/03/27 06:06:23;;;;;;;33.53;17.23;;;;;;;;;;769143;183;924259;-60
2022/03/27 06:08:50;;;;;;;31.27;14.63;;;;;;;;;;766113;179;919770;-62
2022/03/27 06:11:15;;;;;;;36.83;18.80;;;;;;;;;;779256;178;920206;-61
2022/03/27 06:13:41;;;;;;;15.60;10.17;;;;;;;;;;775926;180;918870;-61
2022/03/27 06:16:07;;;;;;;26.40;15.10;;;;;;;;;;769325;179;919609;-61
2022/03/27 06:18:33;;;;;;;36.07;15.33;;;;;;;;;;770515;177;919157;-60
2022/03/27 06:20:59;;;;;;;16.87;10.30;;;;;;;;;;767919;180;919266;-60
2022/03/27 06:23:25;;;;;;;19.23;9.93;;;;;;;;;;776364;178;918585;-60
2022/03/27 06:25:50;;;;;;;21.27;11.93;;;;;;;;;;776349;179;919507;-61
2022/03/27 06:28:16;;;;;;;31.07;15.20;;;;;;;;;;769551;180;920544;-60
2022/03/27 06:30:42;;;;;;;59.10;25.93;;;;;;;;;;774808;180;919784;-62
2022/03/27 06:33:08;;;;;;;43.30;22.37;;;;;;;;;;771823;180;919278;-60
2022/03/27 06:35:35;;;;;;;29.57;15.17;;;;;;;;;;770684;180;919363;-62
2022/03/27 06:38:00;;;;;;;35.90;18.77;;;;;;;;;;775765;179;919066;-61
2022/03/27 06:40:26;;;;;;;29.67;17.23;;;;;;;;;;771308;180;919627;-62
2022/03/27 06:42:52;;;;;;;34.73;17.10;;;;;;;;;;773304;178;920689;-62
2022/03/27 06:45:18;;;;;;;39.30;18.47;;;;;;;;;;775203;178;919607;-62
2022/03/27 06:47:44;;;;;;;24.27;16.40;;;;;;;;;;776373;179;919081;-62
2022/03/27 06:50:09;;;;;;;26.92;14.57;;;;;;;;;;767712;181;919279;-62
2022/03/27 06:52:35;;;;;;;23.80;12.33;;;;;;;;;;770020;179;917462;-61
2022/03/27 06:55:01;;;;;;;22.40;11.83;;;;;;;;;;774586;178;918886;-64
2022/03/27 06:57:27;;;;;;;18.73;9.97;;;;;;;;;;770664;179;919070;-61
2022/03/27 07:04:56;;;;;;;28.50;12.77;;;;;;;;;;769346;182;917655;-64
2022/03/27 07:07:22;;;;;;;23.48;11.40;;;;;;;;;;759462;179;918860;-63
2022/03/27 07:09:48;;;;;;;17.27;9.87;;;;;;;;;;769394;178;1110376;-64
2022/03/27 07:12:14;;;;;;;12.00;5.97;;;;;;;;;;785687;179;918788;-64
2022/03/27 07:14:40;;;;;;;16.67;7.00;;;;;;;;;;778127;177;920342;-64
2022/03/27 07:17:05;;;;;;;20.33;10.70;;;;;;;;;;775209;179;920976;-64
2022/03/27 07:19:31;;;;;;;15.53;10.30;;;;;;;;;;773476;179;918899;-60
2022/03/27 07:21:57;;;;;;;10.73;4.90;;;;;;;;;;776985;179;918625;-62
2022/03/27 07:24:24;;;;;;;16.20;9.03;;;;;;;;;;768889;179;1021914;-61
2022/03/27 07:26:49;;;;;;;19.85;8.52;;;;;;;;;;769696;180;919760;-62
2022/03/27 07:29:15;;;;;;;16.10;8.20;;;;;;;;;;776294;180;918890;-62
2022/03/27 07:31:42;;;;;;;23.08;12.30;;;;;;;;;;765609;179;918511;-61
2022/03/27 07:34:07;;;;;;;17.97;7.87;;;;;;;;;;766854;179;919455;-62
2022/03/27 07:36:34;;;;;;;11.83;5.30;;;;;;;;;;776719;179;920238;-62
2022/03/27 07:38:58;;;;;;;22.77;10.33;;;;;;;;;;775028;179;921072;-62
2022/03/27 07:41:24;;;;;;;16.73;9.63;;;;;;;;;;770486;179;950937;-63
2022/03/27 07:43:50;;;;;;;14.53;8.47;;;;;;;;;;775346;180;919165;-62
2022/03/27 07:46:16;;;;;;;13.17;7.43;;;;;;;;;;769265;179;918448;-62
2022/03/27 07:48:42;;;;;;;15.60;8.70;;;;;;;;;;770188;179;916698;-61
2022/03/27 07:51:08;;;;;;;21.13;10.70;;;;;;;;;;770452;179;916060;-62
2022/03/27 07:53:33;;;;;;;16.13;8.30;;;;;;;;;;777006;180;915940;-62
2022/03/27 07:55:59;;;;;;;18.50;8.53;;;;;;;;;;772658;178;919739;-62
2022/03/27 07:58:25;;;;;;;16.40;8.80;;;;;;;;;;769802;179;928091;-61
2022/03/27 08:00:51;;;;;;;15.23;7.60;;;;;;;;;;772574;180;918273;-62
2022/03/27 08:03:17;;;;;;;14.57;6.97;;;;;;;;;;752657;184;918870;-64
2022/03/27 08:05:43;;;;;;;14.30;6.20;;;;;;;;;;756874;183;1019579;-62
2022/03/27 08:08:08;;;;;;;10.77;4.87;;;;;;;;;;773994;180;919552;-63
2022/03/27 08:10:34;;;;;;;23.20;6.90;;;;;;;;;;776122;178;897968;-62
2022/03/27 08:13:00;;;;;;;15.10;6.37;;;;;;;;;;768416;177;2429795;-62
2022/03/27 08:15:26;;;;;;;13.63;5.30;;;;;;;;;;772505;180;920557;-63
2022/03/27 08:17:53;;;;;;;11.83;5.90;;;;;;;;;;781586;179;918936;-61
2022/03/27 08:20:18;;;;;;;14.30;7.97;;;;;;;;;;769467;177;1021845;-63
2022/03/27 08:22:44;;;;;;;10.20;6.90;;;;;;;;;;770241;181;618662;-62
2022/03/27 08:25:12;;;;;;;11.80;4.87;;;;;;;;;;781805;180;633329;-63
2022/03/27 08:27:36;;;;;;;9.70;5.90;;;;;;;;;;774870;180;629451;-64
2022/03/27 08:30:02;;;;;;;13.30;6.30;;;;;;;;;;785799;177;918434;-62
2022/03/27 08:32:28;;;;;;;15.10;9.20;;;;;;;;;;773679;178;1226547;-63
2022/03/27 08:34:54;;;;;;;14.70;7.20;;;;;;;;;;766854;179;919800;-63
2022/03/27 08:37:20;;;;;;;19.80;9.97;;;;;;;;;;770993;180;920938;-63
2022/03/27 08:39:45;;;;;;;12.73;6.13;;;;;;;;;;768787;180;920653;-62
2022/03/27 08:42:11;;;;;;;13.30;4.75;;;;;;;;;;778362;179;919798;-63
2022/03/27 08:44:37;;;;;;;13.53;6.10;;;;;;;;;;776745;179;919324;-63
2022/03/27 08:47:03;;;;;;;10.13;6.00;;;;;;;;;;775507;178;919135;-64
2022/03/27 08:49:30;;;;;;;12.27;5.87;;;;;;;;;;778021;179;918804;-62
2022/03/27 08:51:56;;;;;;;15.20;6.80;;;;;;;;;;768925;180;916597;-63
2022/03/27 08:54:23;;;;;;;13.80;5.87;;;;;;;;;;769578;178;926265;-63
2022/03/27 08:56:48;;;;;;;10.87;5.80;;;;;;;;;;772807;180;919704;-63
2022/03/27 08:59:14;;;;;;;9.97;5.23;;;;;;;;;;765704;182;915771;-63
2022/03/27 09:01:40;;;;;;;10.53;5.20;;;;;;;;;;769238;179;919779;-63
2022/03/27 09:04:06;;;;;;;17.13;5.30;;;;;;;;;;768351;176;914918;-62
2022/03/27 09:06:32;;;;;;;12.93;5.70;;;;;;;;;;769897;180;916382;-64
2022/03/27 09:08:58;;;;;;;7.80;5.57;;;;;;;;;;769633;179;916143;-63
2022/03/27 09:11:23;;;;;;;8.60;4.63;;;;;;;;;;778241;176;918828;-64
2022/03/27 09:13:49;;;;;;;10.03;5.73;;;;;;;;;;778406;179;1021113;-64
2022/03/27 09:16:15;;;;;;;8.60;4.93;;;;;;;;;;770591;179;919813;-63
2022/03/27 09:18:41;;;;;;;11.60;5.27;;;;;;;;;;770515;179;928864;-65
2022/03/27 09:21:07;;;;;;;11.10;5.03;;;;;;;;;;773847;180;919363;-64
2022/03/27 09:23:35;;;;;;;9.53;4.57;;;;;;;;;;765767;179;919971;-64
2022/03/27 09:25:59;;;;;;;14.07;5.50;;;;;;;;;;769524;179;919445;-63
2022/03/27 09:28:26;;;;;;;5.87;3.93;;;;;;;;;;777866;179;918529;-63
2022/03/27 09:30:52;;;;;;;7.23;3.73;;;;;;;;;;773664;182;919565;-64
2022/03/27 09:33:24;;;;;;;7.80;3.33;;;;;;;;;;764369;180;919612;-64
2022/03/27 09:35:50;;;;;;;9.10;4.37;;;;;;;;;;770742;180;919737;-63
2022/03/27 09:38:19;;;;;;;8.43;4.20;;;;;;;;;;773146;179;613465;-65
2022/03/27 09:40:41;;;;;;;10.20;4.30;;;;;;;;;;771264;180;918705;-66
2022/03/27 09:43:08;;;;;;;12.32;4.25;;;;;;;;;;769001;179;919324;-63
2022/03/27 09:45:34;;;;;;;9.07;3.93;;;;;;;;;;771961;177;919083;-64
2022/03/27 09:48:00;;;;;;;6.17;3.53;;;;;;;;;;770574;179;919184;-63
2022/03/27 09:50:31;;;;;;;12.07;4.03;;;;;;;;;;767182;180;1021657;-63
2022/03/27 09:53:03;;;;;;;7.93;4.20;;;;;;;;;;769201;180;919274;-64
2022/03/27 09:55:29;;;;;;;7.53;4.20;;;;;;;;;;779560;177;919177;-63
2022/03/27 09:57:57;;;;;;;10.00;3.80;;;;;;;;;;778873;180;920269;-64
2022/03/27 10:00:24;;;;;;;5.50;3.07;;;;;;;;;;780028;177;920123;-64
2022/03/27 10:02:49;;;;;;;10.33;4.40;;;;;;;;;;775381;180;919929;-63
2022/03/27 10:05:16;;;;;;;10.20;3.33;;;;;;;;;;772596;179;919483;-64
2022/03/27 10:07:42;;;;;;;11.10;4.97;;;;;;;;;;773304;179;919393;-65
2022/03/27 10:10:08;;;;;;;8.57;3.83;;;;;;;;;;769012;179;919333;-64
2022/03/27 10:12:34;;;;;;;7.73;3.67;;;;;;;;;;773479;179;919555;-64
2022/03/27 10:15:00;;;;;;;13.33;3.87;;;;;;;;;;777639;176;919961;-65
2022/03/27 10:17:26;;;;;;;10.43;3.73;;;;;;;;;;768950;179;926230;-64
2022/03/27 10:19:52;;;;;;;8.97;4.03;;;;;;;;;;770734;180;919432;-65
2022/03/27 10:22:20;;;;;;;9.67;3.90;;;;;;;;;;777247;178;918365;-64
2022/03/27 10:24:43;;;;;;;8.10;3.50;;;;;;;;;;772790;179;922063;-65
2022/03/27 10:27:09;;;;;;;8.90;3.50;;;;;;;;;;769703;179;919347;-65
2022/03/27 10:29:35;;;;;;;14.23;4.50;;;;;;;;;;776524;179;918942;-64
2022/03/27 10:32:02;;;;;;;5.77;3.63;;;;;;;;;;771174;179;919096;-66
2022/03/27 10:34:26;;;;;;;12.33;4.20;;;;;;;;;;773585;180;919260;-65
2022/03/27 10:37:11;;;;;;;7.20;4.27;;;;;;;;;;773290;181;919010;-64
2022/03/27 10:39:40;;;;;;;6.20;3.40;;;;;;;;;;773142;182;918705;-65
2022/03/27 10:42:16;;;;;;;11.77;3.50;;;;;;;;;;781118;179;1122626;-66
2022/03/27 10:44:42;;;;;;;5.67;2.90;;;;;;;;;;771446;177;919298;-66
2022/03/27 10:47:10;;;;;;;12.27;4.80;;;;;;;;;;769382;178;921363;-65
2022/03/27 10:49:36;;;;;;;10.67;3.90;;;;;;;;;;775962;177;916643;-65
2022/03/27 10:52:04;;;;;;;5.00;2.37;;;;;;;;;;780400;179;920381;-66
2022/03/27 10:54:29;;;;;;;4.73;2.30;;;;;;;;;;768175;179;919417;-65
2022/03/27 10:56:56;;;;;;;5.97;3.20;;;;;;;;;;774447;179;1022805;-66
2022/03/27 10:59:21;;;;;;;6.10;3.43;;;;;;;;;;776854;179;919228;-66
2022/03/27 11:01:47;;;;;;;5.05;2.90;;;;;;;;;;768117;180;918761;-66
2022/03/27 11:04:14;;;;;;;5.97;2.47;;;;;;;;;;766548;180;943519;-66
2022/03/27 11:06:42;;;;;;;6.43;3.00;;;;;;;;;;775720;179;918133;-66
2022/03/27 11:09:06;;;;;;;14.30;3.42;;;;;;;;;;778003;178;919795;-65
2022/03/27 11:11:49;;;;;;;10.00;2.73;;;;;;;;;;776165;177;933044;-66
2022/03/27 11:14:15;;;;;;;5.30;3.30;;;;;;;;;;766416;179;1021066;-65
2022/03/27 11:16:47;;;;;;;8.50;3.17;;;;;;;;;;771350;179;918799;-65
2022/03/27 11:19:18;;;;;;;6.90;4.00;;;;;;;;;;780909;177;715758;-66
2022/03/27 11:21:44;;;;;;;5.53;2.40;;;;;;;;;;773308;182;916636;-65
2022/03/27 11:24:25;;;;;;;8.07;3.03;;;;;;;;;;774278;179;918384;-66
2022/03/27 11:26:51;;;;;;;3.43;1.90;;;;;;;;;;768036;179;923156;-68
2022/03/27 11:29:18;;;;;;;6.43;4.37;;;;;;;;;;771465;177;923083;-65
2022/03/27 11:31:44;;;;;;;6.50;3.07;;;;;;;;;;775559;179;938328;-67
2022/03/27 11:34:17;;;;;;;12.03;5.77;;;;;;;;;;772289;178;1022842;-65
2022/03/27 11:36:43;;;;;;;7.47;3.63;;;;;;;;;;771804;179;916516;-66
2022/03/27 11:39:11;;;;;;;17.60;6.83;;;;;;;;;;772029;179;916312;-66
2022/03/27 11:41:50;;;;;;;8.87;5.10;;;;;;;;;;777515;178;916400;-67
2022/03/27 11:44:20;;;;;;;17.37;7.17;;;;;;;;;;772985;182;917829;-65
2022/03/27 11:46:48;;;;;;;25.90;8.83;;;;;;;;;;771434;179;918442;-65
2022/03/27 11:49:13;;;;;;;6.80;2.80;;;;;;;;;;770378;179;923046;-66
2022/03/27 11:51:39;;;;;;;6.30;2.50;;;;;;;;;;775397;180;916578;-66
2022/03/27 11:54:05;;;;;;;3.80;2.30;;;;;;;;;;773191;179;920730;-66
2022/03/27 11:56:31;;;;;;;4.10;2.17;;;;;;;;;;776303;177;865431;-65
2022/03/27 11:59:01;;;;;;;5.43;2.03;;;;;;;;;;776541;179;918917;-66
2022/03/27 12:01:27;;;;;;;3.77;2.43;;;;;;;;;;773934;178;915998;-66
2022/03/27 12:03:56;;;;;;;12.30;3.73;;;;;;;;;;771082;179;914843;-66
2022/03/27 12:06:22;;;;;;;7.23;3.00;;;;;;;;;;773346;179;907646;-65
2022/03/27 12:08:49;;;;;;;7.63;2.43;;;;;;;;;;776862;179;919391;-66
2022/03/27 12:11:13;;;;;;;4.40;2.43;;;;;;;;;;770585;179;1021781;-66
2022/03/27 12:13:39;;;;;;;4.27;2.03;;;;;;;;;;776914;179;627223;-66
2022/03/27 12:16:06;;;;;;;5.65;2.83;;;;;;;;;;779300;179;844366;-65
2022/03/27 12:18:32;;;;;;;10.47;3.30;;;;;;;;;;778648;176;898908;-65
2022/03/27 12:20:58;;;;;;;4.40;2.07;;;;;;;;;;771167;180;919444;-65
2022/03/27 12:23:25;;;;;;;3.47;2.00;;;;;;;;;;770170;179;918322;-66
2022/03/27 12:25:57;;;;;;;5.23;2.17;;;;;;;;;;775833;179;919379;-65
2022/03/27 12:30:54;;;;;;;6.47;2.33;;;;;;;;;;773985;179;634334;-66
2022/03/27 12:33:20;;;;;;;3.40;1.83;;;;;;;;;;770286;179;920848;-65
2022/03/27 12:35:47;;;;;;;4.85;2.50;;;;;;;;;;775675;179;917577;-65
2022/03/27 12:38:11;;;;;;;7.27;2.57;;;;;;;;;;776031;179;918723;-66
2022/03/27 12:40:40;;;;;;;5.30;2.37;;;;;;;;;;773907;178;918678;-65
2022/03/27 12:43:10;;;;;;;6.87;2.60;;;;;;;;;;777259;179;639049;-66
2022/03/27 12:45:40;;;;;;;6.40;2.93;;;;;;;;;;778782;178;912504;-66
2022/03/27 12:48:03;;;;;;;5.27;1.97;;;;;;;;;;768616;180;915181;-65
2022/03/27 12:50:29;;;;;;;10.50;2.30;;;;;;;;;;772537;178;814188;-65
2022/03/27 12:52:55;;;;;;;6.03;2.03;;;;;;;;;;775078;179;916304;-65
2022/03/27 12:55:23;;;;;;;8.93;2.43;;;;;;;;;;772770;180;915631;-66
2022/03/27 12:57:47;;;;;;;6.90;2.37;;;;;;;;;;777576;178;946027;-67
2022/03/27 13:00:13;;;;;;;4.07;2.20;;;;;;;;;;770702;180;916079;-66
2022/03/27 13:02:39;;;;;;;6.03;2.37;;;;;;;;;;768277;179;919416;-67
2022/03/27 13:05:05;;;;;;;8.73;2.47;;;;;;;;;;767688;179;919293;-66
2022/03/27 13:07:37;;;;;;;5.27;2.73;;;;;;;;;;776382;179;804138;-66
2022/03/27 13:10:10;;;;;;;6.80;2.43;;;;;;;;;;783264;179;919390;-66
2022/03/27 13:12:36;;;;;;;4.97;2.47;;;;;;;;;;772074;180;919553;-66
2022/03/27 13:15:03;;;;;;;4.00;2.30;;;;;;;;;;769898;179;894047;-67
2022/03/27 13:17:28;;;;;;;5.57;2.20;;;;;;;;;;777353;177;635186;-65
2022/03/27 13:19:54;;;;;;;5.40;2.50;;;;;;;;;;782181;177;616755;-66
2022/03/27 13:22:20;;;;;;;4.93;2.27;;;;;;;;;;774830;180;919349;-66
2022/03/27 13:24:45;;;;;;;7.25;1.95;;;;;;;;;;776438;179;916448;-66
2022/03/27 13:27:11;;;;;;;5.33;2.50;;;;;;;;;;778051;179;918629;-66
2022/03/27 13:29:37;;;;;;;5.30;2.10;;;;;;;;;;775159;178;921719;-66
2022/03/27 13:32:03;;;;;;;5.60;2.13;;;;;;;;;;785494;177;885974;-66
2022/03/27 13:34:29;;;;;;;4.70;2.00;;;;;;;;;;779048;178;815373;-66
2022/03/27 13:36:55;;;;;;;11.27;3.00;;;;;;;;;;765882;179;1017659;-67
2022/03/27 13:39:21;;;;;;;5.37;2.20;;;;;;;;;;775058;179;863641;-67
2022/03/27 13:44:19;;;;;;;23.70;3.03;;;;;;;;;;784944;178;930461;-66
2022/03/27 13:46:44;;;;;;;11.00;2.23;;;;;;;;;;769069;179;915147;-66
2022/03/27 13:49:10;;;;;;;5.90;2.10;;;;;;;;;;771906;180;916131;-66
2022/03/27 13:51:36;;;;;;;4.60;2.83;;;;;;;;;;773640;180;914569;-67
2022/03/27 13:54:02;;;;;;;8.17;2.53;;;;;;;;;;774626;177;911287;-66
2022/03/27 13:56:28;;;;;;;5.73;2.30;;;;;;;;;;774118;176;922089;-66
2022/03/27 13:58:54;;;;;;;6.77;2.63;;;;;;;;;;776828;176;919128;-66
2022/03/27 14:01:19;;;;;;;5.10;2.03;;;;;;;;;;780089;179;917862;-66
2022/03/27 14:03:45;;;;;;;4.50;2.10;;;;;;;;;;781753;176;619769;-66
2022/03/27 14:06:11;;;;;;;6.03;2.40;;;;;;;;;;768524;179;915822;-66
2022/03/27 14:08:38;;;;;;;6.57;2.70;;;;;;;;;;780107;177;916534;-66
2022/03/27 14:11:03;;;;;;;4.43;1.77;;;;;;;;;;775905;179;902275;-66
2022/03/27 14:13:29;;;;;;;5.27;2.57;;;;;;;;;;777172;179;621873;-68
2022/03/27 14:15:54;;;;;;;3.97;2.43;;;;;;;;;;776086;179;919474;-66
2022/03/27 14:18:20;;;;;;;5.93;2.53;;;;;;;;;;776648;179;629059;-66
2022/03/27 14:20:46;;;;;;;3.60;1.90;;;;;;;;;;779284;179;616312;-66